sensor_id;sensor_type;location;lat;lon;timestamp;pressure;altitude;pressure_sealevel;temperature;humidity
55191;BME280;41070;50.360;18.742;2023-01-26T00:01:23;99351.45;;;0.36;79.90
55191;BME280;41070;50.360;18.742;2023-01-26T00:04:39;99354.70;;;0.35;80.08
55191;BME280;41070;50.360;18.742;2023-01-26T00:11:34;99346.84;;;0.29;80.00
55191;BME280;41070;50.360;18.742;2023-01-26T00:14:49;99341.27;;;0.29;79.93
55191;BME280;41070;50.360;18.742;2023-01-26T00:17:40;99332.62;;;0.29;80.14
55191;BME280;41070;50.360;18.742;2023-01-26T00:21:22;99327.14;;;0.28;80.25
55191;BME280;41070;50.360;18.742;2023-01-26T00:24:18;99329.00;;;0.29;79.92
55191;BME280;41070;50.360;18.742;2023-01-26T00:27:07;99329.61;;;0.27;80.19
55191;BME280;41070;50.360;18.742;2023-01-26T00:30:24;99327.08;;;0.26;80.25
55191;BME280;41070;50.360;18.742;2023-01-26T00:33:44;99324.42;;;0.21;80.44
55191;BME280;41070;50.360;18.742;2023-01-26T00:36:13;99329.38;;;0.23;80.67
55191;BME280;41070;50.360;18.742;2023-01-26T00:39:14;99325.52;;;0.20;80.73
55191;BME280;41070;50.360;18.742;2023-01-26T00:42:18;99326.35;;;0.18;80.66
55191;BME280;41070;50.360;18.742;2023-01-26T00:45:15;99318.08;;;0.16;80.66
55191;BME280;41070;50.360;18.742;2023-01-26T00:48:34;99319.41;;;0.19;80.41
55191;BME280;41070;50.360;18.742;2023-01-26T00:51:54;99323.08;;;0.16;80.67
55191;BME280;41070;50.360;18.742;2023-01-26T00:54:47;99324.66;;;0.17;81.16
55191;BME280;41070;50.360;18.742;2023-01-26T00:57:39;99325.55;;;0.17;80.73
55191;BME280;41070;50.360;18.742;2023-01-26T01:00:48;99325.23;;;0.12;80.34
55191;BME280;41070;50.360;18.742;2023-01-26T01:06:29;99325.61;;;0.09;80.84
55191;BME280;41070;50.360;18.742;2023-01-26T01:09:36;99319.14;;;0.10;80.82
55191;BME280;41070;50.360;18.742;2023-01-26T01:12:36;99319.89;;;0.10;80.79
55191;BME280;41070;50.360;18.742;2023-01-26T01:15:42;99309.25;;;0.08;80.87
55191;BME280;41070;50.360;18.742;2023-01-26T01:18:54;99305.23;;;0.14;80.94
55191;BME280;41070;50.360;18.742;2023-01-26T01:22:02;99302.44;;;0.15;80.33
55191;BME280;41070;50.360;18.742;2023-01-26T01:25:08;99299.59;;;0.12;80.26
55191;BME280;41070;50.360;18.742;2023-01-26T01:27:41;99305.81;;;0.07;80.45
55191;BME280;41070;50.360;18.742;2023-01-26T01:31:11;99305.48;;;0.03;80.12
55191;BME280;41070;50.360;18.742;2023-01-26T19:55:44;98872.49;;;-0.24;77.78
55191;BME280;41070;50.360;18.742;2023-01-26T19:58:13;98874.45;;;-0.27;78.28
55191;BME280;41070;50.360;18.742;2023-01-26T20:00:40;98874.23;;;-0.30;78.03
55191;BME280;41070;50.360;18.742;2023-01-26T20:03:09;98868.92;;;-0.33;77.90
55191;BME280;41070;50.360;18.742;2023-01-26T20:05:36;98870.98;;;-0.34;78.42
55191;BME280;41070;50.360;18.742;2023-01-26T20:08:02;98874.55;;;-0.32;78.39
55191;BME280;41070;50.360;18.742;2023-01-26T20:10:52;98876.45;;;-0.29;78.06
55191;BME280;41070;50.360;18.742;2023-01-26T20:13:18;98877.02;;;-0.25;78.23
55191;BME280;41070;50.360;18.742;2023-01-26T20:15:53;98874.91;;;-0.26;78.08
55191;BME280;41070;50.360;18.742;2023-01-26T20:18:19;98874.98;;;-0.27;78.00
55191;BME280;41070;50.360;18.742;2023-01-26T20:20:58;98873.45;;;-0.29;77.77
55191;BME280;41070;50.360;18.742;2023-01-26T20:23:26;98875.27;;;-0.32;77.97
55191;BME280;41070;50.360;18.742;2023-01-26T20:26:01;98872.23;;;-0.38;78.00
55191;BME280;41070;50.360;18.742;2023-01-26T20:28:54;98866.77;;;-0.42;77.80
55191;BME280;41070;50.360;18.742;2023-01-26T20:31:23;98865.45;;;-0.45;78.04
55191;BME280;41070;50.360;18.742;2023-01-26T20:33:50;98863.19;;;-0.47;77.95
55191;BME280;41070;50.360;18.742;2023-01-26T20:36:20;98861.25;;;-0.50;78.19
55191;BME280;41070;50.360;18.742;2023-01-26T20:38:48;98857.51;;;-0.52;78.29
55191;BME280;41070;50.360;18.742;2023-01-26T20:41:18;98863.77;;;-0.54;78.24
55191;BME280;41070;50.360;18.742;2023-01-26T20:43:45;98855.71;;;-0.55;78.43
55191;BME280;41070;50.360;18.742;2023-01-26T20:46:28;98853.72;;;-0.55;78.43
55191;BME280;41070;50.360;18.742;2023-01-26T20:49:17;98851.77;;;-0.55;78.49
55191;BME280;41070;50.360;18.742;2023-01-26T20:51:47;98852.98;;;-0.51;78.56
55191;BME280;41070;50.360;18.742;2023-01-26T20:54:17;98847.73;;;-0.47;78.69
55191;BME280;41070;50.360;18.742;2023-01-26T20:56:47;98847.15;;;-0.42;78.74
55191;BME280;41070;50.360;18.742;2023-01-26T20:59:17;98847.36;;;-0.38;78.69
55191;BME280;41070;50.360;18.742;2023-01-26T21:01:43;98847.58;;;-0.33;78.90
55191;BME280;41070;50.360;18.742;2023-01-26T21:04:10;98845.26;;;-0.28;78.70
55191;BME280;41070;50.360;18.742;2023-01-26T21:06:40;98845.24;;;-0.23;78.83
55191;BME280;41070;50.360;18.742;2023-01-26T21:09:09;98845.56;;;-0.18;78.98
55191;BME280;41070;50.360;18.742;2023-01-26T21:11:36;98845.66;;;-0.14;78.83
55191;BME280;41070;50.360;18.742;2023-01-26T21:14:03;98846.86;;;-0.07;79.03
55191;BME280;41070;50.360;18.742;2023-01-26T21:16:36;98848.39;;;-0.04;78.47
55191;BME280;41070;50.360;18.742;2023-01-26T21:19:05;98844.05;;;-0.03;78.69
55191;BME280;41070;50.360;18.742;2023-01-26T21:21:34;98844.17;;;0.01;78.31
55191;BME280;41070;50.360;18.742;2023-01-26T21:24:00;98842.59;;;0.03;78.31
55191;BME280;41070;50.360;18.742;2023-01-26T21:26:28;98842.27;;;0.03;77.77
55191;BME280;41070;50.360;18.742;2023-01-26T21:28:58;98844.59;;;0.02;77.54
55191;BME280;41070;50.360;18.742;2023-01-26T21:31:27;98844.90;;;0.03;77.74
55191;BME280;41070;50.360;18.742;2023-01-26T21:33:55;98841.54;;;0.04;77.72
55191;BME280;41070;50.360;18.742;2023-01-26T21:36:24;98846.42;;;0.05;77.88
55191;BME280;41070;50.360;18.742;2023-01-26T21:39:00;98845.47;;;0.07;78.04
55191;BME280;41070;50.360;18.742;2023-01-26T21:41:37;98839.48;;;0.06;77.90
55191;BME280;41070;50.360;18.742;2023-01-26T21:44:31;98838.05;;;0.06;77.69
55191;BME280;41070;50.360;18.742;2023-01-26T21:47:19;98834.36;;;0.07;77.95
55191;BME280;41070;50.360;18.742;2023-01-26T21:49:47;98838.09;;;0.08;77.78
55191;BME280;41070;50.360;18.742;2023-01-26T21:52:19;98836.79;;;0.07;77.71
55191;BME280;41070;50.360;18.742;2023-01-26T21:55:13;98834.05;;;0.07;77.15
55191;BME280;41070;50.360;18.742;2023-01-26T21:58:26;98837.10;;;0.09;77.09
55191;BME280;41070;50.360;18.742;2023-01-26T22:01:14;98832.73;;;0.07;77.42
55191;BME280;41070;50.360;18.742;2023-01-26T22:03:41;98831.38;;;0.06;77.91
55191;BME280;41070;50.360;18.742;2023-01-26T22:06:18;98829.95;;;0.05;77.46
55191;BME280;41070;50.360;18.742;2023-01-26T22:08:44;98824.59;;;0.04;77.09
55191;BME280;41070;50.360;18.742;2023-01-26T22:11:26;98820.90;;;0.04;77.36
55191;BME280;41070;50.360;18.742;2023-01-26T22:13:53;98822.01;;;0.05;77.33
55191;BME280;41070;50.360;18.742;2023-01-26T22:16:22;98818.73;;;0.03;77.46
55191;BME280;41070;50.360;18.742;2023-01-26T22:18:55;98817.86;;;-0.01;77.69
55191;BME280;41070;50.360;18.742;2023-01-26T22:21:24;98814.55;;;-0.07;77.20
55191;BME280;41070;50.360;18.742;2023-01-26T22:23:52;98822.14;;;-0.13;77.28
55191;BME280;41070;50.360;18.742;2023-01-26T22:26:21;98821.31;;;-0.15;77.66
55191;BME280;41070;50.360;18.742;2023-01-26T22:29:13;98815.05;;;-0.18;77.82
55191;BME280;41070;50.360;18.742;2023-01-26T22:31:45;98816.84;;;-0.20;77.83
55191;BME280;41070;50.360;18.742;2023-01-26T22:34:11;98817.79;;;-0.19;78.10
55191;BME280;41070;50.360;18.742;2023-01-26T22:36:38;98820.36;;;-0.20;78.08
55191;BME280;41070;50.360;18.742;2023-01-26T22:39:16;98820.48;;;-0.20;78.09
55191;BME280;41070;50.360;18.742;2023-01-26T22:41:42;98822.14;;;-0.20;78.24
55191;BME280;41070;50.360;18.742;2023-01-26T22:44:09;98815.36;;;-0.20;77.97
55191;BME280;41070;50.360;18.742;2023-01-26T22:46:38;98817.21;;;-0.20;78.14
55191;BME280;41070;50.360;18.742;2023-01-26T22:49:05;98816.36;;;-0.16;78.34
55191;BME280;41070;50.360;18.742;2023-01-26T22:51:50;98812.40;;;-0.12;78.28
55191;BME280;41070;50.360;18.742;2023-01-26T22:54:17;98815.55;;;-0.10;78.16
55191;BME280;41070;50.360;18.742;2023-01-26T22:56:44;98813.98;;;-0.10;78.19
55191;BME280;41070;50.360;18.742;2023-01-26T22:59:14;98811.92;;;-0.07;78.55
55191;BME280;41070;50.360;18.742;2023-01-26T23:01:54;98812.92;;;-0.05;78.53
55191;BME280;41070;50.360;18.742;2023-01-26T23:04:29;98812.86;;;-0.05;78.15
55191;BME280;41070;50.360;18.742;2023-01-26T23:06:57;98812.93;;;-0.06;78.46
55191;BME280;41070;50.360;18.742;2023-01-26T23:09:24;98815.92;;;-0.06;78.24
55191;BME280;41070;50.360;18.742;2023-01-26T23:11:54;98814.35;;;-0.08;78.26
55191;BME280;41070;50.360;18.742;2023-01-26T23:14:23;98817.92;;;-0.10;78.29
55191;BME280;41070;50.360;18.742;2023-01-26T23:16:49;98813.84;;;-0.15;78.24
55191;BME280;41070;50.360;18.742;2023-01-26T23:19:21;98817.01;;;-0.19;78.46
55191;BME280;41070;50.360;18.742;2023-01-26T23:22:21;98811.38;;;-0.25;78.25
55191;BME280;41070;50.360;18.742;2023-01-26T23:24:48;98810.45;;;-0.32;78.32
55191;BME280;41070;50.360;18.742;2023-01-26T23:27:34;98806.81;;;-0.37;78.42
55191;BME280;41070;50.360;18.742;2023-01-26T23:30:03;98804.34;;;-0.43;78.71
55191;BME280;41070;50.360;18.742;2023-01-26T23:32:30;98800.00;;;-0.47;78.73
55191;BME280;41070;50.360;18.742;2023-01-26T23:34:57;98801.94;;;-0.48;79.06
55191;BME280;41070;50.360;18.742;2023-01-26T23:37:25;98800.10;;;-0.47;79.12
55191;BME280;41070;50.360;18.742;2023-01-26T23:39:51;98802.52;;;-0.46;79.39
55191;BME280;41070;50.360;18.742;2023-01-26T23:42:34;98802.63;;;-0.49;79.21
55191;BME280;41070;50.360;18.742;2023-01-26T23:45:01;98802.63;;;-0.50;79.02
55191;BME280;41070;50.360;18.742;2023-01-26T23:47:27;98801.47;;;-0.50;79.06
55191;BME280;41070;50.360;18.742;2023-01-26T23:50:00;98797.47;;;-0.51;79.29
55191;BME280;41070;50.360;18.742;2023-01-26T23:52:31;98798.94;;;-0.54;79.46
55191;BME280;41070;50.360;18.742;2023-01-26T23:55:15;98799.52;;;-0.58;79.39
55191;BME280;41070;50.360;18.742;2023-01-26T23:57:45;98797.31;;;-0.61;79.39
